sensor_id;sensor_type;location;lat;lon;timestamp;pressure;altitude;pressure_sealevel;temperature;humidity
6694;BME280;3384;42.628;23.380;2023-01-25T00:00:04;95224.69;;;3.21;100.00
6694;BME280;3384;42.628;23.380;2023-01-25T00:02:31;95224.22;;;3.01;100.00
6694;BME280;3384;42.628;23.380;2023-01-25T00:04:58;95231.81;;;3.09;100.00
6694;BME280;3384;42.628;23.380;2023-01-25T00:07:25;95234.91;;;3.06;100.00
6694;BME280;3384;42.628;23.380;2023-01-25T00:09:53;95231.78;;;3.44;100.00
6694;BME280;3384;42.628;23.380;2023-01-25T00:12:20;95236.50;;;3.53;100.00
6694;BME280;3384;42.628;23.380;2023-01-25T00:14:46;95246.66;;;3.22;100.00
6694;BME280;3384;42.628;23.380;2023-01-25T00:17:13;95237.91;;;3.21;100.00
6694;BME280;3384;42.628;23.380;2023-01-25T00:19:40;95227.19;;;3.51;100.00
6694;BME280;3384;42.628;23.380;2023-01-25T00:22:13;95233.28;;;3.40;100.00
6694;BME280;3384;42.628;23.380;2023-01-25T00:24:40;95231.44;;;3.40;100.00
6694;BME280;3384;42.628;23.380;2023-01-25T00:27:08;95229.97;;;3.10;100.00
6694;BME280;3384;42.628;23.380;2023-01-25T00:29:34;95225.13;;;3.07;100.00
6694;BME280;3384;42.628;23.380;2023-01-25T00:32:28;95231.94;;;3.14;100.00
6694;BME280;3384;42.628;23.380;2023-01-25T00:34:57;95223.97;;;3.03;100.00
6694;BME280;3384;42.628;23.380;2023-01-25T00:37:29;95227.09;;;3.11;100.00
6694;BME280;3384;42.628;23.380;2023-01-25T00:39:56;95223.84;;;2.74;100.00
6694;BME280;3384;42.628;23.380;2023-01-25T00:42:24;95224.22;;;3.01;100.00
6694;BME280;3384;42.628;23.380;2023-01-25T00:44:51;95225.81;;;3.14;100.00
6694;BME280;3384;42.628;23.380;2023-01-25T00:47:17;95222.34;;;3.25;100.00
6694;BME280;3384;42.628;23.380;2023-01-25T00:49:45;95232.94;;;3.25;100.00
6694;BME280;3384;42.628;23.380;2023-01-25T00:52:12;95227.66;;;3.25;100.00
6694;BME280;3384;42.628;23.380;2023-01-25T00:54:39;95230.75;;;3.10;100.00
6694;BME280;3384;42.628;23.380;2023-01-25T00:57:06;95222.03;;;2.98;100.00
6694;BME280;3384;42.628;23.380;2023-01-25T00:59:34;95231.34;;;3.01;100.00
6694;BME280;3384;42.628;23.380;2023-01-25T01:02:01;95226.72;;;2.96;100.00
6694;BME280;3384;42.628;23.380;2023-01-25T01:04:29;95219.38;;;3.21;100.00
6694;BME280;3384;42.628;23.380;2023-01-25T01:06:55;95222.59;;;2.77;100.00
6694;BME280;3384;42.628;23.380;2023-01-25T01:09:23;95220.38;;;2.62;100.00
6694;BME280;3384;42.628;23.380;2023-01-25T01:11:50;95222.13;;;2.80;100.00
6694;BME280;3384;42.628;23.380;2023-01-25T01:14:18;95231.47;;;3.06;100.00
6694;BME280;3384;42.628;23.380;2023-01-25T01:16:46;95224.78;;;3.03;100.00
6694;BME280;3384;42.628;23.380;2023-01-25T01:19:13;95229.50;;;2.89;100.00
6694;BME280;3384;42.628;23.380;2023-01-25T01:21:40;95229.84;;;2.81;100.00
6694;BME280;3384;42.628;23.380;2023-01-25T01:24:07;95218.75;;;2.50;100.00
6694;BME280;3384;42.628;23.380;2023-01-25T01:26:34;95221.84;;;2.58;100.00
6694;BME280;3384;42.628;23.380;2023-01-25T01:29:02;95216.03;;;2.79;100.00
6694;BME280;3384;42.628;23.380;2023-01-25T01:31:29;95222.59;;;2.77;100.00
6694;BME280;3384;42.628;23.380;2023-01-25T01:33:57;95217.03;;;2.55;100.00
6694;BME280;3384;42.628;23.380;2023-01-25T01:36:27;95215.53;;;2.59;100.00
6694;BME280;3384;42.628;23.380;2023-01-25T01:38:54;95208.78;;;2.63;100.00
6694;BME280;3384;42.628;23.380;2023-01-25T01:41:21;95209.09;;;2.55;100.00
6694;BME280;3384;42.628;23.380;2023-01-25T01:43:48;95206.88;;;2.52;100.00
6694;BME280;3384;42.628;23.380;2023-01-25T01:46:22;95200.25;;;2.73;100.00
6694;BME280;3384;42.628;23.380;2023-01-25T01:48:53;95210.28;;;2.82;100.00
6694;BME280;3384;42.628;23.380;2023-01-25T01:51:25;95200.69;;;2.58;100.00
6694;BME280;3384;42.628;23.380;2023-01-25T01:53:56;95199.09;;;2.57;100.00
6694;BME280;3384;42.628;23.380;2023-01-25T01:56:28;95200.94;;;3.03;100.00
6694;BME280;3384;42.628;23.380;2023-01-25T01:58:57;95213.38;;;3.03;100.00
6694;BME280;3384;42.628;23.380;2023-01-25T02:01:25;95207.97;;;2.74;100.00
6694;BME280;3384;42.628;23.380;2023-01-25T02:03:52;95211.41;;;2.86;100.00
6694;BME280;3384;42.628;23.380;2023-01-25T02:06:26;95202.84;;;2.38;100.00
6694;BME280;3384;42.628;23.380;2023-01-25T02:08:54;95205.09;;;2.64;100.00
6694;BME280;3384;42.628;23.380;2023-01-25T02:11:22;95192.66;;;2.76;100.00
6694;BME280;3384;42.628;23.380;2023-01-25T02:13:50;95202.66;;;2.97;100.00
6694;BME280;3384;42.628;23.380;2023-01-25T02:16:22;95211.31;;;2.81;100.00
6694;BME280;3384;42.628;23.380;2023-01-25T02:18:50;95205.34;;;2.86;100.00
6694;BME280;3384;42.628;23.380;2023-01-25T02:21:18;95200.34;;;2.43;100.00
6694;BME280;3384;42.628;23.380;2023-01-25T02:23:52;95207.50;;;2.89;100.00
6694;BME280;3384;42.628;23.380;2023-01-25T02:26:22;95206.81;;;2.59;100.00
6694;BME280;3384;42.628;23.380;2023-01-25T02:28:51;95207.94;;;2.51;100.00
6694;BME280;3384;42.628;23.380;2023-01-25T02:31:19;95202.44;;;2.76;100.00
6694;BME280;3384;42.628;23.380;2023-01-25T02:33:46;95209.16;;;2.37;100.00
6694;BME280;3384;42.628;23.380;2023-01-25T02:36:20;95210.81;;;2.61;100.00
6694;BME280;3384;42.628;23.380;2023-01-25T02:38:51;95203.22;;;2.53;100.00
6694;BME280;3384;42.628;23.380;2023-01-25T02:41:24;95198.03;;;2.58;100.00
6694;BME280;3384;42.628;23.380;2023-01-25T02:43:52;95191.72;;;2.71;100.00
6694;BME280;3384;42.628;23.380;2023-01-25T02:46:22;95200.59;;;2.76;100.00
6694;BME280;3384;42.628;23.380;2023-01-25T02:48:52;95188.28;;;2.70;100.00
6694;BME280;3384;42.628;23.380;2023-01-25T02:51:19;95201.59;;;2.52;100.00
6694;BME280;3384;42.628;23.380;2023-01-25T02:53:47;95195.75;;;2.73;100.00
6694;BME280;3384;42.628;23.380;2023-01-25T02:56:13;95204.25;;;2.64;100.00
6694;BME280;3384;42.628;23.380;2023-01-25T02:58:42;95202.19;;;2.54;100.00
6694;BME280;3384;42.628;23.380;2023-01-25T03:01:09;95208.63;;;2.58;100.00
6694;BME280;3384;42.628;23.380;2023-01-25T03:03:36;95191.81;;;2.53;100.00
6694;BME280;3384;42.628;23.380;2023-01-25T03:06:03;95201.47;;;2.47;100.00
6694;BME280;3384;42.628;23.380;2023-01-25T03:08:30;95214.63;;;2.77;100.00
6694;BME280;3384;42.628;23.380;2023-01-25T03:10:57;95204.06;;;2.77;100.00
6694;BME280;3384;42.628;23.380;2023-01-25T03:13:24;95209.16;;;2.37;100.00
6694;BME280;3384;42.628;23.380;2023-01-25T03:15:57;95199.66;;;2.71;100.00
6694;BME280;3384;42.628;23.380;2023-01-25T03:18:27;95203.00;;;2.66;100.00
6694;BME280;3384;42.628;23.380;2023-01-25T03:21:24;95217.16;;;2.83;100.00
6694;BME280;3384;42.628;23.380;2023-01-25T03:23:54;95199.78;;;2.53;100.00
6694;BME280;3384;42.628;23.380;2023-01-25T03:26:22;95201.88;;;2.74;100.00
6694;BME280;3384;42.628;23.380;2023-01-25T03:28:49;95199.56;;;2.77;100.00
6694;BME280;3384;42.628;23.380;2023-01-25T03:31:20;95194.59;;;2.69;100.00
6694;BME280;3384;42.628;23.380;2023-01-25T03:33:47;95197.84;;;2.71;100.00
6694;BME280;3384;42.628;23.380;2023-01-25T03:36:14;95203.81;;;2.78;100.00
6694;BME280;3384;42.628;23.380;2023-01-25T03:38:40;95194.84;;;2.91;100.00
6694;BME280;3384;42.628;23.380;2023-01-25T03:41:07;95202.53;;;2.46;100.00
6694;BME280;3384;42.628;23.380;2023-01-25T03:43:34;95194.03;;;2.67;100.00
6694;BME280;3384;42.628;23.380;2023-01-25T03:46:01;95200.47;;;2.71;100.00
6694;BME280;3384;42.628;23.380;2023-01-25T03:48:29;95201.06;;;2.85;100.00
6694;BME280;3384;42.628;23.380;2023-01-25T03:50:57;95195.28;;;2.76;100.00
6694;BME280;3384;42.628;23.380;2023-01-25T03:53:26;95193.66;;;2.52;100.00
6694;BME280;3384;42.628;23.380;2023-01-25T03:55:55;95189.53;;;2.68;100.00
6694;BME280;3384;42.628;23.380;2023-01-25T03:58:22;95191.03;;;2.64;100.00
6694;BME280;3384;42.628;23.380;2023-01-25T04:00:49;95188.38;;;2.41;100.00
6694;BME280;3384;42.628;23.380;2023-01-25T04:03:16;95195.75;;;2.62;100.00
6694;BME280;3384;42.628;23.380;2023-01-25T04:05:45;95192.09;;;2.86;100.00
6694;BME280;3384;42.628;23.380;2023-01-25T04:08:12;95193.91;;;2.62;100.00
6694;BME280;3384;42.628;23.380;2023-01-25T04:10:39;95189.88;;;2.60;100.00
6694;BME280;3384;42.628;23.380;2023-01-25T04:13:06;95191.75;;;2.82;100.00
6694;BME280;3384;42.628;23.380;2023-01-25T04:15:32;95193.91;;;2.62;100.00
6694;BME280;3384;42.628;23.380;2023-01-25T04:17:59;95184.38;;;2.61;100.00
6694;BME280;3384;42.628;23.380;2023-01-25T04:20:26;95190.84;;;2.24;100.00
6694;BME280;3384;42.628;23.380;2023-01-25T04:22:55;95182.69;;;2.26;100.00
6694;BME280;3384;42.628;23.380;2023-01-25T04:25:21;95194.84;;;2.79;100.00
6694;BME280;3384;42.628;23.380;2023-01-25T04:27:49;95185.66;;;2.70;100.00
6694;BME280;3384;42.628;23.380;2023-01-25T04:30:16;95186.16;;;2.49;100.00
6694;BME280;3384;42.628;23.380;2023-01-25T04:32:43;95199.78;;;2.64;100.00
6694;BME280;3384;42.628;23.380;2023-01-25T04:35:09;95192.47;;;2.37;100.00
6694;BME280;3384;42.628;23.380;2023-01-25T04:37:36;95198.38;;;2.50;100.00
6694;BME280;3384;42.628;23.380;2023-01-25T04:40:06;95204.50;;;2.74;100.00
6694;BME280;3384;42.628;23.380;2023-01-25T04:42:33;95200.13;;;2.79;100.00
6694;BME280;3384;42.628;23.380;2023-01-25T04:45:00;95204.00;;;2.54;100.00
6694;BME280;3384;42.628;23.380;2023-01-25T04:47:27;95204.84;;;2.66;100.00
6694;BME280;3384;42.628;23.380;2023-01-25T04:49:54;95199.09;;;2.69;100.00
6694;BME280;3384;42.628;23.380;2023-01-25T04:52:20;95204.50;;;2.62;100.00
6694;BME280;3384;42.628;23.380;2023-01-25T04:54:47;95203.94;;;2.83;100.00
6694;BME280;3384;42.628;23.380;2023-01-25T04:57:16;95201.63;;;2.64;100.00
6694;BME280;3384;42.628;23.380;2023-01-25T04:59:43;95207.63;;;2.82;100.00
6694;BME280;3384;42.628;23.380;2023-01-25T05:02:09;95206.59;;;2.83;100.00
6694;BME280;3384;42.628;23.380;2023-01-25T05:04:37;95202.53;;;2.69;100.00
6694;BME280;3384;42.628;23.380;2023-01-25T05:07:03;95202.28;;;2.59;100.00
6694;BME280;3384;42.628;23.380;2023-01-25T05:09:30;95190.53;;;2.44;100.00
6694;BME280;3384;42.628;23.380;2023-01-25T05:11:57;95195.19;;;2.71;100.00
6694;BME280;3384;42.628;23.380;2023-01-25T05:14:25;95196.22;;;2.59;100.00
6694;BME280;3384;42.628;23.380;2023-01-25T05:16:52;95203.59;;;2.80;100.00
6694;BME280;3384;42.628;23.380;2023-01-25T05:19:19;95189.56;;;2.56;100.00
6694;BME280;3384;42.628;23.380;2023-01-25T05:21:46;95189.63;;;2.50;100.00
6694;BME280;3384;42.628;23.380;2023-01-25T05:24:24;95189.19;;;2.64;100.00
6694;BME280;3384;42.628;23.380;2023-01-25T05:26:51;95191.81;;;2.53;100.00
6694;BME280;3384;42.628;23.380;2023-01-25T05:29:30;95200.25;;;2.61;100.00
6694;BME280;3384;42.628;23.380;2023-01-25T05:32:00;95191.81;;;2.53;100.00
6694;BME280;3384;42.628;23.380;2023-01-25T05:34:27;95190.69;;;2.60;100.00
6694;BME280;3384;42.628;23.380;2023-01-25T05:36:54;95191.59;;;2.54;100.00
6694;BME280;3384;42.628;23.380;2023-01-25T05:39:20;95182.66;;;2.14;100.00
6694;BME280;3384;42.628;23.380;2023-01-25T05:41:47;95185.28;;;2.55;100.00
6694;BME280;3384;42.628;23.380;2023-01-25T05:44:14;95195.81;;;2.32;100.00
6694;BME280;3384;42.628;23.380;2023-01-25T05:46:42;95201.72;;;2.46;100.00
6694;BME280;3384;42.628;23.380;2023-01-25T05:49:09;95193.59;;;2.70;100.00
6694;BME280;3384;42.628;23.380;2023-01-25T05:51:37;95195.28;;;2.65;100.00
6694;BME280;3384;42.628;23.380;2023-01-25T05:54:04;95191.72;;;2.59;100.00
6694;BME280;3384;42.628;23.380;2023-01-25T05:56:31;95201.25;;;2.49;100.00
6694;BME280;3384;42.628;23.380;2023-01-25T05:58:59;95195.06;;;2.66;100.00
6694;BME280;3384;42.628;23.380;2023-01-25T06:01:27;95201.41;;;2.65;100.00
6694;BME280;3384;42.628;23.380;2023-01-25T06:03:56;95197.34;;;2.10;100.00
6694;BME280;3384;42.628;23.380;2023-01-25T06:06:23;95198.38;;;2.50;100.00
6694;BME280;3384;42.628;23.380;2023-01-25T06:08:50;95200.69;;;2.58;100.00
6694;BME280;3384;42.628;23.380;2023-01-25T06:11:19;95203.94;;;2.60;100.00
6694;BME280;3384;42.628;23.380;2023-01-25T06:13:47;95201.16;;;3.25;100.00
6694;BME280;3384;42.628;23.380;2023-01-25T06:16:14;95209.78;;;3.20;100.00
6694;BME280;3384;42.628;23.380;2023-01-25T06:18:41;95215.66;;;2.87;100.00
6694;BME280;3384;42.628;23.380;2023-01-25T06:21:10;95218.91;;;2.89;100.00
6694;BME280;3384;42.628;23.380;2023-01-25T06:23:37;95204.19;;;2.70;100.00
6694;BME280;3384;42.628;23.380;2023-01-25T06:26:06;95222.56;;;2.65;100.00
6694;BME280;3384;42.628;23.380;2023-01-25T06:28:34;95224.75;;;2.68;100.00
6694;BME280;3384;42.628;23.380;2023-01-25T06:31:06;95219.91;;;2.65;100.00
6694;BME280;3384;42.628;23.380;2023-01-25T06:33:33;95214.06;;;2.63;100.00
6694;BME280;3384;42.628;23.380;2023-01-25T06:36:01;95215.78;;;2.69;100.00
6694;BME280;3384;42.628;23.380;2023-01-25T06:38:30;95207.28;;;2.79;100.00
6694;BME280;3384;42.628;23.380;2023-01-25T06:41:00;95205.78;;;2.71;100.00
6694;BME280;3384;42.628;23.380;2023-01-25T06:43:28;95205.78;;;2.71;100.00
6694;BME280;3384;42.628;23.380;2023-01-25T06:45:58;95203.22;;;2.53;100.00
6694;BME280;3384;42.628;23.380;2023-01-25T06:48:26;95211.41;;;2.63;100.00
6694;BME280;3384;42.628;23.380;2023-01-25T06:50:54;95207.03;;;2.57;100.00
6694;BME280;3384;42.628;23.380;2023-01-25T06:53:25;95212.69;;;2.84;100.00
6694;BME280;3384;42.628;23.380;2023-01-25T06:56:03;95203.13;;;2.60;100.00
6694;BME280;3384;42.628;23.380;2023-01-25T06:58:31;95215.50;;;2.36;100.00
6694;BME280;3384;42.628;23.380;2023-01-25T07:01:03;95209.53;;;2.52;100.00
6694;BME280;3384;42.628;23.380;2023-01-25T07:03:31;95217.47;;;2.52;100.00
6694;BME280;3384;42.628;23.380;2023-01-25T07:06:03;95205.31;;;2.74;100.00
6694;BME280;3384;42.628;23.380;2023-01-25T07:08:31;95209.53;;;2.52;100.00
6694;BME280;3384;42.628;23.380;2023-01-25T07:10:59;95206.75;;;2.36;100.00
6694;BME280;3384;42.628;23.380;2023-01-25T07:13:29;95205.97;;;2.58;100.00
6694;BME280;3384;42.628;23.380;2023-01-25T07:15:57;95198.69;;;2.42;100.00
6694;BME280;3384;42.628;23.380;2023-01-25T07:18:25;95205.06;;;2.53;100.00
6694;BME280;3384;42.628;23.380;2023-01-25T07:21:01;95208.28;;;2.66;100.00
6694;BME280;3384;42.628;23.380;2023-01-25T07:23:29;95209.44;;;2.82;100.00
6694;BME280;3384;42.628;23.380;2023-01-25T07:25:56;95217.75;;;2.74;100.00
6694;BME280;3384;42.628;23.380;2023-01-25T07:28:23;95213.47;;;2.61;100.00
6694;BME280;3384;42.628;23.380;2023-01-25T07:30:54;95212.66;;;2.72;100.00
6694;BME280;3384;42.628;23.380;2023-01-25T07:33:23;95212.78;;;2.66;100.00
6694;BME280;3384;42.628;23.380;2023-01-25T07:35:52;95212.44;;;2.74;100.00
6694;BME280;3384;42.628;23.380;2023-01-25T07:38:19;95208.47;;;2.30;100.00
6694;BME280;3384;42.628;23.380;2023-01-25T07:40:50;95204.69;;;2.49;100.00
6694;BME280;3384;42.628;23.380;2023-01-25T07:43:19;95218.09;;;2.66;100.00
6694;BME280;3384;42.628;23.380;2023-01-25T07:45:48;95220.19;;;2.87;100.00
6694;BME280;3384;42.628;23.380;2023-01-25T07:48:17;95217.41;;;2.82;100.00
6694;BME280;3384;42.628;23.380;2023-01-25T07:50:44;95219.09;;;2.65;100.00
6694;BME280;3384;42.628;23.380;2023-01-25T07:53:14;95217.50;;;2.64;100.00
6694;BME280;3384;42.628;23.380;2023-01-25T07:55:40;95224.41;;;2.76;100.00
6694;BME280;3384;42.628;23.380;2023-01-25T07:58:10;95220.97;;;2.64;100.00
6694;BME280;3384;42.628;23.380;2023-01-25T08:00:40;95213.94;;;2.17;100.00
6694;BME280;3384;42.628;23.380;2023-01-25T08:03:07;95222.06;;;2.45;100.00
6694;BME280;3384;42.628;23.380;2023-01-25T08:05:36;95212.34;;;2.69;100.00
6694;BME280;3384;42.628;23.380;2023-01-25T08:08:02;95223.44;;;2.36;100.00
6694;BME280;3384;42.628;23.380;2023-01-25T08:10:30;95207.69;;;2.41;100.00
6694;BME280;3384;42.628;23.380;2023-01-25T08:12:57;95201.88;;;2.74;100.00
6694;BME280;3384;42.628;23.380;2023-01-25T08:15:23;95209.22;;;2.72;100.00
6694;BME280;3384;42.628;23.380;2023-01-25T08:17:50;95209.00;;;2.97;100.00
6694;BME280;3384;42.628;23.380;2023-01-25T08:20:17;95210.72;;;2.79;100.00
6694;BME280;3384;42.628;23.380;2023-01-25T08:22:47;95210.97;;;2.89;100.00
6694;BME280;3384;42.628;23.380;2023-01-25T08:25:14;95215.09;;;3.32;100.00
6694;BME280;3384;42.628;23.380;2023-01-25T08:27:41;95215.22;;;2.90;100.00
6694;BME280;3384;42.628;23.380;2023-01-25T08:30:09;95208.09;;;3.14;100.00
6694;BME280;3384;42.628;23.380;2023-01-25T08:32:38;95205.66;;;2.78;100.00
6694;BME280;3384;42.628;23.380;2023-01-25T08:35:05;95200.84;;;2.63;100.00
6694;BME280;3384;42.628;23.380;2023-01-25T08:37:32;95206.25;;;2.80;100.00
6694;BME280;3384;42.628;23.380;2023-01-25T08:40:01;95207.50;;;3.01;100.00
6694;BME280;3384;42.628;23.380;2023-01-25T08:42:27;95204.84;;;3.01;100.00
6694;BME280;3384;42.628;23.380;2023-01-25T08:44:54;95197.16;;;2.99;100.00
6694;BME280;3384;42.628;23.380;2023-01-25T08:47:21;95188.19;;;3.00;100.00
6694;BME280;3384;42.628;23.380;2023-01-25T08:49:48;95197.38;;;3.21;100.00
6694;BME280;3384;42.628;23.380;2023-01-25T08:52:15;95202.69;;;2.86;100.00
6694;BME280;3384;42.628;23.380;2023-01-25T08:54:42;95185.31;;;3.02;100.00
6694;BME280;3384;42.628;23.380;2023-01-25T08:57:10;95196.81;;;2.96;100.00
6694;BME280;3384;42.628;23.380;2023-01-25T08:59:37;95191.41;;;2.79;100.00
6694;BME280;3384;42.628;23.380;2023-01-25T09:02:04;95193.13;;;2.97;100.00
6694;BME280;3384;42.628;23.380;2023-01-25T09:04:30;95194.50;;;2.87;100.00
6694;BME280;3384;42.628;23.380;2023-01-25T09:06:57;95195.41;;;3.28;100.00
6694;BME280;3384;42.628;23.380;2023-01-25T09:09:24;95196.69;;;3.02;100.00
6694;BME280;3384;42.628;23.380;2023-01-25T09:11:51;95195.66;;;3.03;100.00
6694;BME280;3384;42.628;23.380;2023-01-25T09:14:19;95192.06;;;3.32;100.00
6694;BME280;3384;42.628;23.380;2023-01-25T09:16:46;95186.69;;;3.16;100.00
6694;BME280;3384;42.628;23.380;2023-01-25T09:19:13;95173.50;;;3.44;100.00
6694;BME280;3384;42.628;23.380;2023-01-25T09:21:40;95171.47;;;3.23;100.00
6694;BME280;3384;42.628;23.380;2023-01-25T09:24:07;95180.84;;;3.53;100.00
6694;BME280;3384;42.628;23.380;2023-01-25T09:26:36;95179.69;;;3.61;100.00
6694;BME280;3384;42.628;23.380;2023-01-25T09:29:03;95176.91;;;3.56;100.00
6694;BME280;3384;42.628;23.380;2023-01-25T09:31:33;95166.03;;;3.29;100.00
6694;BME280;3384;42.628;23.380;2023-01-25T09:34:00;95167.47;;;2.97;100.00
6694;BME280;3384;42.628;23.380;2023-01-25T09:36:27;95164.53;;;3.22;100.00
6694;BME280;3384;42.628;23.380;2023-01-25T09:38:54;95157.75;;;3.26;100.00
6694;BME280;3384;42.628;23.380;2023-01-25T09:44:21;95145.84;;;3.40;100.00
6694;BME280;3384;42.628;23.380;2023-01-25T09:46:54;95147.25;;;3.31;100.00
6694;BME280;3384;42.628;23.380;2023-01-25T09:49:31;95140.44;;;3.46;100.00
6694;BME280;3384;42.628;23.380;2023-01-25T09:52:20;95136.31;;;3.27;100.00
6694;BME280;3384;42.628;23.380;2023-01-25T09:54:51;95139.81;;;3.16;100.00
6694;BME280;3384;42.628;23.380;2023-01-25T09:57:21;95135.84;;;3.42;100.00
6694;BME280;3384;42.628;23.380;2023-01-25T09:59:52;95121.91;;;3.74;100.00
6694;BME280;3384;42.628;23.380;2023-01-25T10:02:33;95128.75;;;3.59;100.00
6694;BME280;3384;42.628;23.380;2023-01-25T10:05:06;95126.78;;;3.66;100.00
6694;BME280;3384;42.628;23.380;2023-01-25T10:07:46;95117.97;;;3.77;100.00
6694;BME280;3384;42.628;23.380;2023-01-25T10:10:17;95115.88;;;3.51;100.00
6694;BME280;3384;42.628;23.380;2023-01-25T10:12:46;95109.03;;;3.66;100.00
6694;BME280;3384;42.628;23.380;2023-01-25T10:15:17;95104.63;;;3.44;100.00
6694;BME280;3384;42.628;23.380;2023-01-25T10:17:48;95083.97;;;3.46;100.00
6694;BME280;3384;42.628;23.380;2023-01-25T10:20:27;95104.03;;;3.70;100.00
6694;BME280;3384;42.628;23.380;2023-01-25T10:23:09;95093.59;;;3.63;100.00
6694;BME280;3384;42.628;23.380;2023-01-25T10:25:45;95091.94;;;3.46;100.00
6694;BME280;3384;42.628;23.380;2023-01-25T10:28:20;95095.38;;;3.46;100.00
6694;BME280;3384;42.628;23.380;2023-01-25T10:30:54;95091.66;;;3.59;100.00
6694;BME280;3384;42.628;23.380;2023-01-25T10:33:25;95083.94;;;4.02;100.00
6694;BME280;3384;42.628;23.380;2023-01-25T10:35:54;95088.13;;;3.70;100.00
6694;BME280;3384;42.628;23.380;2023-01-25T10:38:25;95080.81;;;4.05;100.00
6694;BME280;3384;42.628;23.380;2023-01-25T10:40:57;95085.22;;;3.55;100.00
6694;BME280;3384;42.628;23.380;2023-01-25T10:43:26;95082.09;;;4.19;100.00
6694;BME280;3384;42.628;23.380;2023-01-25T10:45:53;95076.47;;;3.99;100.00
6694;BME280;3384;42.628;23.380;2023-01-25T10:48:22;95076.47;;;4.15;100.00
6694;BME280;3384;42.628;23.380;2023-01-25T10:50:52;95069.78;;;3.96;100.00
6694;BME280;3384;42.628;23.380;2023-01-25T10:53:29;95060.88;;;3.86;100.00
6694;BME280;3384;42.628;23.380;2023-01-25T10:56:20;95056.47;;;4.08;100.00
6694;BME280;3384;42.628;23.380;2023-01-25T10:58:49;95051.09;;;4.19;100.00
6694;BME280;3384;42.628;23.380;2023-01-25T11:01:29;95049.88;;;3.94;100.00
6694;BME280;3384;42.628;23.380;2023-01-25T11:03:57;95048.91;;;3.83;100.00
6694;BME280;3384;42.628;23.380;2023-01-25T11:06:32;95038.13;;;4.23;100.00
6694;BME280;3384;42.628;23.380;2023-01-25T11:09:00;95050.09;;;4.09;100.00
6694;BME280;3384;42.628;23.380;2023-01-25T11:11:32;95058.13;;;4.47;100.00
6694;BME280;3384;42.628;23.380;2023-01-25T11:14:00;95050.09;;;4.42;100.00
6694;BME280;3384;42.628;23.380;2023-01-25T11:16:30;95043.44;;;4.23;100.00
6694;BME280;3384;42.628;23.380;2023-01-25T11:18:59;95052.44;;;4.05;100.00
6694;BME280;3384;42.628;23.380;2023-01-25T11:21:28;95044.25;;;4.07;100.00
6694;BME280;3384;42.628;23.380;2023-01-25T11:24:15;95045.53;;;4.75;100.00
6694;BME280;3384;42.628;23.380;2023-01-25T11:26:43;95034.34;;;3.86;100.00
6694;BME280;3384;42.628;23.380;2023-01-25T11:29:13;95030.09;;;4.18;100.00
6694;BME280;3384;42.628;23.380;2023-01-25T11:31:41;95030.69;;;4.20;100.00
6694;BME280;3384;42.628;23.380;2023-01-25T11:34:12;95035.97;;;4.03;100.00
6694;BME280;3384;42.628;23.380;2023-01-25T11:36:55;95028.81;;;4.37;100.00
6694;BME280;3384;42.628;23.380;2023-01-25T11:39:41;95018.03;;;4.10;100.00
6694;BME280;3384;42.628;23.380;2023-01-25T11:42:22;95019.81;;;4.38;100.00
6694;BME280;3384;42.628;23.380;2023-01-25T11:45:17;95018.78;;;4.22;100.00
6694;BME280;3384;42.628;23.380;2023-01-25T11:47:59;95001.53;;;4.41;100.00
6694;BME280;3384;42.628;23.380;2023-01-25T11:50:35;95004.06;;;4.15;100.00
6694;BME280;3384;42.628;23.380;2023-01-25T11:53:32;95000.41;;;4.75;100.00
6694;BME280;3384;42.628;23.380;2023-01-25T11:56:10;94991.72;;;4.42;100.00
6694;BME280;3384;42.628;23.380;2023-01-25T11:58:55;94991.91;;;4.73;100.00
6694;BME280;3384;42.628;23.380;2023-01-25T12:01:33;94992.09;;;4.88;100.00
6694;BME280;3384;42.628;23.380;2023-01-25T12:07:01;94988.44;;;4.35;100.00
6694;BME280;3384;42.628;23.380;2023-01-25T12:09:48;94982.50;;;4.66;100.00
6694;BME280;3384;42.628;23.380;2023-01-25T12:12:27;94973.38;;;4.02;100.00
6694;BME280;3384;42.628;23.380;2023-01-25T12:15:33;94971.75;;;4.56;100.00
6694;BME280;3384;42.628;23.380;2023-01-25T12:21:05;94978.94;;;4.39;100.00
6694;BME280;3384;42.628;23.380;2023-01-25T12:23:39;94975.69;;;4.53;100.00
6694;BME280;3384;42.628;23.380;2023-01-25T12:26:19;94981.31;;;4.19;100.00
6694;BME280;3384;42.628;23.380;2023-01-25T12:28:57;94973.72;;;4.44;100.00
6694;BME280;3384;42.628;23.380;2023-01-25T12:31:29;94965.22;;;4.63;100.00
6694;BME280;3384;42.628;23.380;2023-01-25T12:34:01;94970.28;;;4.10;100.00
6694;BME280;3384;42.628;23.380;2023-01-25T12:36:31;94963.97;;;4.11;100.00
6694;BME280;3384;42.628;23.380;2023-01-25T12:39:02;94969.16;;;4.82;100.00
6694;BME280;3384;42.628;23.380;2023-01-25T12:41:37;94970.16;;;4.17;100.00
6694;BME280;3384;42.628;23.380;2023-01-25T12:44:14;94954.91;;;4.29;100.00
6694;BME280;3384;42.628;23.380;2023-01-25T12:46:45;94947.75;;;3.91;100.00
6694;BME280;3384;42.628;23.380;2023-01-25T12:49:19;94954.66;;;3.92;100.00
6694;BME280;3384;42.628;23.380;2023-01-25T12:51:50;94958.53;;;4.23;100.00
6694;BME280;3384;42.628;23.380;2023-01-25T12:54:22;94958.88;;;4.26;100.00
6694;BME280;3384;42.628;23.380;2023-01-25T12:57:00;94956.66;;;4.02;100.00
6694;BME280;3384;42.628;23.380;2023-01-25T12:59:34;94954.00;;;4.18;100.00
6694;BME280;3384;42.628;23.380;2023-01-25T13:02:23;94944.91;;;3.98;100.00
6694;BME280;3384;42.628;23.380;2023-01-25T13:04:59;94949.16;;;4.15;100.00
6694;BME280;3384;42.628;23.380;2023-01-25T13:07:34;94945.75;;;4.36;100.00
6694;BME280;3384;42.628;23.380;2023-01-25T13:10:08;94936.50;;;3.84;100.00
6694;BME280;3384;42.628;23.380;2023-01-25T13:12:50;94933.28;;;3.99;100.00
6694;BME280;3384;42.628;23.380;2023-01-25T13:15:39;94936.28;;;4.24;100.00
6694;BME280;3384;42.628;23.380;2023-01-25T13:18:37;94925.25;;;4.32;100.00
6694;BME280;3384;42.628;23.380;2023-01-25T13:21:09;94923.38;;;4.11;100.00
6694;BME280;3384;42.628;23.380;2023-01-25T13:23:39;94930.69;;;4.42;100.00
6694;BME280;3384;42.628;23.380;2023-01-25T13:26:36;94929.00;;;4.36;100.00
6694;BME280;3384;42.628;23.380;2023-01-25T13:29:03;94935.44;;;4.18;100.00
6694;BME280;3384;42.628;23.380;2023-01-25T13:31:52;94924.63;;;4.25;100.00
6694;BME280;3384;42.628;23.380;2023-01-25T13:37:20;94934.88;;;4.00;100.00